sensor_id;sensor_type;location;lat;lon;timestamp;pressure;altitude;pressure_sealevel;temperature;humidity
43691;BME280;29293;52.190;21.226;2023-05-23T00:13:31;100365.84;;;10.47;100.00
43691;BME280;29293;52.190;21.226;2023-05-23T00:28:40;100358.11;;;9.77;100.00
43691;BME280;29293;52.190;21.226;2023-05-23T00:43:47;100349.84;;;9.46;100.00
43691;BME280;29293;52.190;21.226;2023-05-23T00:58:54;100346.27;;;9.23;100.00
43691;BME280;29293;52.190;21.226;2023-05-23T01:14:06;100347.99;;;9.11;100.00
43691;BME280;29293;52.190;21.226;2023-05-23T01:29:21;100353.52;;;9.06;100.00
43691;BME280;29293;52.190;21.226;2023-05-23T01:44:30;100347.64;;;9.09;100.00
43691;BME280;29293;52.190;21.226;2023-05-23T01:59:38;100338.55;;;9.11;100.00
43691;BME280;29293;52.190;21.226;2023-05-23T02:14:45;100330.88;;;9.09;100.00
43691;BME280;29293;52.190;21.226;2023-05-23T02:29:52;100316.70;;;9.08;100.00
43691;BME280;29293;52.190;21.226;2023-05-23T02:44:58;100302.89;;;9.20;100.00
43691;BME280;29293;52.190;21.226;2023-05-23T03:00:07;100292.94;;;9.23;100.00
43691;BME280;29293;52.190;21.226;2023-05-23T03:15:16;100288.53;;;9.24;100.00
43691;BME280;29293;52.190;21.226;2023-05-23T03:30:23;100287.46;;;9.43;100.00
43691;BME280;29293;52.190;21.226;2023-05-23T03:45:30;100288.80;;;9.73;100.00
43691;BME280;29293;52.190;21.226;2023-05-23T04:00:37;100292.99;;;10.12;100.00
43691;BME280;29293;52.190;21.226;2023-05-23T04:15:44;100279.55;;;10.55;100.00
43691;BME280;29293;52.190;21.226;2023-05-23T04:30:52;100273.34;;;11.12;100.00
43691;BME280;29293;52.190;21.226;2023-05-23T04:45:59;100275.48;;;11.80;100.00
43691;BME280;29293;52.190;21.226;2023-05-23T05:01:06;100270.46;;;12.49;100.00
43691;BME280;29293;52.190;21.226;2023-05-23T05:16:14;100265.70;;;13.14;100.00
43691;BME280;29293;52.190;21.226;2023-05-23T05:31:20;100251.88;;;13.78;100.00
43691;BME280;29293;52.190;21.226;2023-05-23T05:46:27;100250.66;;;14.39;100.00
43691;BME280;29293;52.190;21.226;2023-05-23T06:01:34;100249.88;;;15.09;100.00
43691;BME280;29293;52.190;21.226;2023-05-23T06:16:42;100242.44;;;15.85;100.00
43691;BME280;29293;52.190;21.226;2023-05-23T06:31:49;100230.69;;;16.62;100.00
43691;BME280;29293;52.190;21.226;2023-05-23T07:04:54;100210.36;;;19.73;90.62
43691;BME280;29293;52.190;21.226;2023-05-23T07:20:02;100186.66;;;21.34;69.12
43691;BME280;29293;52.190;21.226;2023-05-23T07:35:09;100177.83;;;21.86;58.94
43691;BME280;29293;52.190;21.226;2023-05-23T07:50:16;100173.31;;;22.24;54.58
43691;BME280;29293;52.190;21.226;2023-05-23T08:05:33;100162.55;;;22.46;51.55
43691;BME280;29293;52.190;21.226;2023-05-23T08:20:40;100144.80;;;22.86;46.24
43691;BME280;29293;52.190;21.226;2023-05-23T08:35:47;100141.80;;;22.97;44.42
43691;BME280;29293;52.190;21.226;2023-05-23T08:50:54;100132.56;;;22.96;43.88
43691;BME280;29293;52.190;21.226;2023-05-23T09:06:03;100121.33;;;22.66;42.22
43691;BME280;29293;52.190;21.226;2023-05-23T09:21:16;100115.41;;;22.39;41.94
43691;BME280;29293;52.190;21.226;2023-05-23T09:36:25;100108.83;;;22.42;42.78
43691;BME280;29293;52.190;21.226;2023-05-23T09:51:34;100105.38;;;23.06;41.19
43691;BME280;29293;52.190;21.226;2023-05-23T10:06:51;100099.23;;;23.55;39.68
43691;BME280;29293;52.190;21.226;2023-05-23T10:37:58;100090.25;;;24.68;35.39
43691;BME280;29293;52.190;21.226;2023-05-23T10:53:07;100086.91;;;24.59;36.32
43691;BME280;29293;52.190;21.226;2023-05-23T11:08:15;100077.98;;;24.59;35.98
43691;BME280;29293;52.190;21.226;2023-05-23T11:23:22;100057.09;;;24.89;36.06
43691;BME280;29293;52.190;21.226;2023-05-23T11:38:29;100050.29;;;25.64;35.24
43691;BME280;29293;52.190;21.226;2023-05-23T11:53:36;100039.47;;;25.19;34.85
43691;BME280;29293;52.190;21.226;2023-05-23T12:08:43;100030.04;;;25.15;35.83
43691;BME280;29293;52.190;21.226;2023-05-23T12:23:54;100020.12;;;25.60;34.82
43691;BME280;29293;52.190;21.226;2023-05-23T12:39:04;100013.25;;;26.00;34.19
43691;BME280;29293;52.190;21.226;2023-05-23T12:54:11;100001.20;;;25.96;33.47
43691;BME280;29293;52.190;21.226;2023-05-23T13:09:18;99994.55;;;25.15;34.74
43691;BME280;29293;52.190;21.226;2023-05-23T13:24:25;99988.94;;;24.14;35.77
43691;BME280;29293;52.190;21.226;2023-05-23T13:39:32;99974.09;;;24.41;37.48
43691;BME280;29293;52.190;21.226;2023-05-23T13:54:39;99969.45;;;25.33;34.00
43691;BME280;29293;52.190;21.226;2023-05-23T14:09:46;99958.26;;;25.40;34.69
43691;BME280;29293;52.190;21.226;2023-05-23T14:24:56;99955.85;;;25.17;34.85
43691;BME280;29293;52.190;21.226;2023-05-23T14:40:03;99946.38;;;25.06;34.71
43691;BME280;29293;52.190;21.226;2023-05-23T14:55:10;99940.52;;;24.80;34.97
43691;BME280;29293;52.190;21.226;2023-05-23T15:10:18;99939.27;;;24.65;34.45
43691;BME280;29293;52.190;21.226;2023-05-23T15:25:24;99923.41;;;24.25;34.47
43691;BME280;29293;52.190;21.226;2023-05-23T15:40:32;99920.50;;;23.61;35.22
43691;BME280;29293;52.190;21.226;2023-05-23T15:55:39;99921.52;;;23.32;35.63
43691;BME280;29293;52.190;21.226;2023-05-23T16:10:46;99907.22;;;22.89;36.60
43691;BME280;29293;52.190;21.226;2023-05-23T16:25:53;99900.41;;;22.58;37.93
43691;BME280;29293;52.190;21.226;2023-05-23T16:41:03;99894.11;;;22.62;39.16
43691;BME280;29293;52.190;21.226;2023-05-23T17:11:52;99904.60;;;22.07;39.67
43691;BME280;29293;52.190;21.226;2023-05-23T17:26:58;99905.36;;;21.70;40.63
43691;BME280;29293;52.190;21.226;2023-05-23T17:42:06;99902.53;;;21.25;42.28
43691;BME280;29293;52.190;21.226;2023-05-23T17:57:12;99907.01;;;20.58;44.94
43691;BME280;29293;52.190;21.226;2023-05-23T18:12:20;99917.18;;;19.89;49.89
43691;BME280;29293;52.190;21.226;2023-05-23T19:19:32;99954.80;;;18.52;56.79
43691;BME280;29293;52.190;21.226;2023-05-23T19:34:40;99961.37;;;17.70;59.63
43691;BME280;29293;52.190;21.226;2023-05-23T19:49:47;99972.44;;;17.25;62.15
43691;BME280;29293;52.190;21.226;2023-05-23T20:04:55;99977.24;;;16.93;63.86
43691;BME280;29293;52.190;21.226;2023-05-23T20:20:39;99977.26;;;16.64;66.98
43691;BME280;29293;52.190;21.226;2023-05-23T20:35:45;99986.59;;;16.48;69.68
43691;BME280;29293;52.190;21.226;2023-05-23T21:17:27;99988.13;;;16.41;74.20
43691;BME280;29293;52.190;21.226;2023-05-23T21:32:34;99987.50;;;15.85;79.66
43691;BME280;29293;52.190;21.226;2023-05-23T21:47:41;99992.88;;;15.60;82.93
43691;BME280;29293;52.190;21.226;2023-05-23T22:02:47;99999.86;;;15.44;87.35
43691;BME280;29293;52.190;21.226;2023-05-23T22:17:56;100001.52;;;15.28;94.87
43691;BME280;29293;52.190;21.226;2023-05-23T22:33:03;99992.22;;;15.28;93.95
43691;BME280;29293;52.190;21.226;2023-05-23T22:48:16;99994.38;;;15.44;91.34
43691;BME280;29293;52.190;21.226;2023-05-23T23:03:24;99995.08;;;15.56;89.59
43691;BME280;29293;52.190;21.226;2023-05-23T23:18:30;99994.14;;;15.59;88.19
43691;BME280;29293;52.190;21.226;2023-05-23T23:33:37;99984.51;;;15.51;88.17
43691;BME280;29293;52.190;21.226;2023-05-23T23:48:44;99978.00;;;15.47;87.00
